sensor_id;sensor_type;location;lat;lon;timestamp;pressure;altitude;pressure_sealevel;temperature;humidity
19096;BME280;9680;52.520;13.332;2024-01-11T00:01:38;102970.97;;;-6.68;79.17
19096;BME280;9680;52.520;13.332;2024-01-11T00:04:04;102971.66;;;-6.70;79.42
19096;BME280;9680;52.520;13.332;2024-01-11T00:06:31;102969.78;;;-6.73;79.06
19096;BME280;9680;52.520;13.332;2024-01-11T00:08:58;102963.63;;;-6.77;79.42
19096;BME280;9680;52.520;13.332;2024-01-11T00:11:24;102957.78;;;-6.76;79.56
19096;BME280;9680;52.520;13.332;2024-01-11T00:13:51;102960.00;;;-6.80;79.67
19096;BME280;9680;52.520;13.332;2024-01-11T00:16:18;102969.28;;;-6.81;80.15
19096;BME280;9680;52.520;13.332;2024-01-11T00:18:46;102974.91;;;-6.85;80.98
19096;BME280;9680;52.520;13.332;2024-01-11T00:21:13;102970.59;;;-6.86;81.35
19096;BME280;9680;52.520;13.332;2024-01-11T00:23:40;102951.31;;;-6.84;81.25
19096;BME280;9680;52.520;13.332;2024-01-11T00:26:07;102950.41;;;-6.84;81.45
19096;BME280;9680;52.520;13.332;2024-01-11T00:28:34;102936.88;;;-6.85;81.33
19096;BME280;9680;52.520;13.332;2024-01-11T00:31:00;102944.06;;;-6.91;81.06
19096;BME280;9680;52.520;13.332;2024-01-11T00:33:27;102933.72;;;-6.94;81.33
19096;BME280;9680;52.520;13.332;2024-01-11T00:35:55;102935.22;;;-6.96;81.58
19096;BME280;9680;52.520;13.332;2024-01-11T00:38:22;102931.94;;;-6.95;81.85
19096;BME280;9680;52.520;13.332;2024-01-11T00:40:48;102920.03;;;-6.96;81.62
19096;BME280;9680;52.520;13.332;2024-01-11T00:43:15;102925.00;;;-6.98;81.71
19096;BME280;9680;52.520;13.332;2024-01-11T00:45:42;102908.69;;;-7.02;82.09
19096;BME280;9680;52.520;13.332;2024-01-11T00:48:08;102883.34;;;-7.02;82.32
19096;BME280;9680;52.520;13.332;2024-01-11T00:50:35;102895.00;;;-6.92;82.43
19096;BME280;9680;52.520;13.332;2024-01-11T00:53:03;102894.91;;;-6.93;82.25
19096;BME280;9680;52.520;13.332;2024-01-11T00:55:30;102916.38;;;-6.88;82.14
19096;BME280;9680;52.520;13.332;2024-01-11T00:57:57;102902.16;;;-6.86;82.61
19096;BME280;9680;52.520;13.332;2024-01-11T01:00:23;102898.09;;;-6.96;82.60
19096;BME280;9680;52.520;13.332;2024-01-11T01:02:50;102893.81;;;-6.97;82.58
19096;BME280;9680;52.520;13.332;2024-01-11T01:05:17;102903.50;;;-6.91;82.89
19096;BME280;9680;52.520;13.332;2024-01-11T01:07:43;102890.34;;;-6.85;83.29
19096;BME280;9680;52.520;13.332;2024-01-11T01:10:12;102861.25;;;-6.79;83.26
19096;BME280;9680;52.520;13.332;2024-01-11T01:12:39;102843.31;;;-6.68;83.28
19096;BME280;9680;52.520;13.332;2024-01-11T01:15:07;102857.50;;;-6.59;83.21
19096;BME280;9680;52.520;13.332;2024-01-11T01:17:34;102864.91;;;-6.62;82.65
19096;BME280;9680;52.520;13.332;2024-01-11T01:20:01;102868.88;;;-6.65;82.78
19096;BME280;9680;52.520;13.332;2024-01-11T01:22:28;102854.34;;;-6.68;82.67
19096;BME280;9680;52.520;13.332;2024-01-11T01:24:55;102870.66;;;-6.64;82.85
19096;BME280;9680;52.520;13.332;2024-01-11T01:27:23;102859.16;;;-6.59;82.85
19096;BME280;9680;52.520;13.332;2024-01-11T01:29:50;102877.81;;;-6.59;82.78
19096;BME280;9680;52.520;13.332;2024-01-11T01:32:17;102870.47;;;-6.54;82.65
19096;BME280;9680;52.520;13.332;2024-01-11T01:34:44;102887.66;;;-6.50;82.82
19096;BME280;9680;52.520;13.332;2024-01-11T01:37:11;102880.16;;;-6.48;82.96
19096;BME280;9680;52.520;13.332;2024-01-11T01:39:38;102890.50;;;-6.45;82.70
19096;BME280;9680;52.520;13.332;2024-01-11T01:42:05;102882.41;;;-6.39;83.24
19096;BME280;9680;52.520;13.332;2024-01-11T01:44:33;102879.41;;;-6.34;83.47
19096;BME280;9680;52.520;13.332;2024-01-11T01:47:00;102873.75;;;-6.30;83.51
19096;BME280;9680;52.520;13.332;2024-01-11T01:49:29;102873.50;;;-6.21;83.25
19096;BME280;9680;52.520;13.332;2024-01-11T01:51:56;102862.19;;;-6.12;83.15
19096;BME280;9680;52.520;13.332;2024-01-11T01:54:23;102863.25;;;-6.09;83.04
19096;BME280;9680;52.520;13.332;2024-01-11T01:56:51;102862.59;;;-6.06;82.83
19096;BME280;9680;52.520;13.332;2024-01-11T01:59:21;102877.63;;;-6.09;82.57
19096;BME280;9680;52.520;13.332;2024-01-11T02:01:50;102885.41;;;-6.20;82.30
19096;BME280;9680;52.520;13.332;2024-01-11T02:04:18;102897.69;;;-6.26;82.60
19096;BME280;9680;52.520;13.332;2024-01-11T02:06:46;102886.78;;;-6.25;82.89
19096;BME280;9680;52.520;13.332;2024-01-11T02:09:14;102894.25;;;-6.26;83.11
19096;BME280;9680;52.520;13.332;2024-01-11T02:11:41;102902.25;;;-6.34;83.18
19096;BME280;9680;52.520;13.332;2024-01-11T02:14:09;102920.00;;;-6.34;83.98
19096;BME280;9680;52.520;13.332;2024-01-11T02:16:36;102917.56;;;-6.32;84.41
19096;BME280;9680;52.520;13.332;2024-01-11T02:19:06;102914.16;;;-6.33;84.15
19096;BME280;9680;52.520;13.332;2024-01-11T02:21:34;102915.88;;;-6.45;84.42
19096;BME280;9680;52.520;13.332;2024-01-11T02:24:05;102911.22;;;-6.64;84.73
19096;BME280;9680;52.520;13.332;2024-01-11T02:26:33;102908.34;;;-6.69;84.93
19096;BME280;9680;52.520;13.332;2024-01-11T02:28:59;102904.38;;;-6.65;85.42
19096;BME280;9680;52.520;13.332;2024-01-11T02:31:27;102913.44;;;-6.69;85.21
19096;BME280;9680;52.520;13.332;2024-01-11T02:33:54;102921.50;;;-6.75;85.85
19096;BME280;9680;52.520;13.332;2024-01-11T02:36:22;102919.41;;;-6.68;86.15
19096;BME280;9680;52.520;13.332;2024-01-11T02:38:49;102925.91;;;-6.72;85.84
19096;BME280;9680;52.520;13.332;2024-01-11T02:41:18;102919.53;;;-6.79;86.59
19096;BME280;9680;52.520;13.332;2024-01-11T02:43:47;102921.75;;;-6.83;86.65
19096;BME280;9680;52.520;13.332;2024-01-11T02:46:14;102911.94;;;-6.79;86.98
19096;BME280;9680;52.520;13.332;2024-01-11T02:48:41;102896.94;;;-6.76;87.23
19096;BME280;9680;52.520;13.332;2024-01-11T02:51:08;102888.84;;;-6.70;87.25
19096;BME280;9680;52.520;13.332;2024-01-11T02:53:35;102880.91;;;-6.63;87.57
19096;BME280;9680;52.520;13.332;2024-01-11T02:56:01;102870.88;;;-6.48;87.76
19096;BME280;9680;52.520;13.332;2024-01-11T02:58:30;102884.09;;;-6.40;87.43
19096;BME280;9680;52.520;13.332;2024-01-11T03:00:56;102878.81;;;-6.43;86.57
19096;BME280;9680;52.520;13.332;2024-01-11T03:03:23;102877.25;;;-6.41;87.02
19096;BME280;9680;52.520;13.332;2024-01-11T03:05:50;102884.19;;;-6.38;86.43
19096;BME280;9680;52.520;13.332;2024-01-11T03:08:17;102887.13;;;-6.32;86.48
19096;BME280;9680;52.520;13.332;2024-01-11T03:10:44;102898.16;;;-6.32;86.00
19096;BME280;9680;52.520;13.332;2024-01-11T03:13:10;102895.69;;;-6.44;85.64
19096;BME280;9680;52.520;13.332;2024-01-11T03:15:39;102900.47;;;-6.48;85.85
19096;BME280;9680;52.520;13.332;2024-01-11T03:18:06;102886.47;;;-6.55;86.06
19096;BME280;9680;52.520;13.332;2024-01-11T03:20:33;102898.38;;;-6.54;86.25
19096;BME280;9680;52.520;13.332;2024-01-11T03:23:00;102897.31;;;-6.57;86.04
19096;BME280;9680;52.520;13.332;2024-01-11T03:25:27;102888.03;;;-6.57;86.16
19096;BME280;9680;52.520;13.332;2024-01-11T03:27:55;102893.31;;;-6.54;86.41
19096;BME280;9680;52.520;13.332;2024-01-11T03:30:22;102888.81;;;-6.58;86.08
19096;BME280;9680;52.520;13.332;2024-01-11T03:32:50;102890.03;;;-6.65;86.30
19096;BME280;9680;52.520;13.332;2024-01-11T03:35:17;102883.91;;;-6.68;86.54
19096;BME280;9680;52.520;13.332;2024-01-11T03:37:44;102878.81;;;-6.68;86.85
19096;BME280;9680;52.520;13.332;2024-01-11T03:40:12;102864.69;;;-6.65;87.09
19096;BME280;9680;52.520;13.332;2024-01-11T03:42:39;102853.81;;;-6.50;87.42
19096;BME280;9680;52.520;13.332;2024-01-11T03:45:07;102843.78;;;-6.35;87.76
19096;BME280;9680;52.520;13.332;2024-01-11T03:47:33;102836.22;;;-6.22;87.48
19096;BME280;9680;52.520;13.332;2024-01-11T03:50:02;102824.97;;;-6.12;87.19
19096;BME280;9680;52.520;13.332;2024-01-11T03:52:29;102822.25;;;-6.02;86.98
19096;BME280;9680;52.520;13.332;2024-01-11T03:54:56;102822.72;;;-5.94;86.88
19096;BME280;9680;52.520;13.332;2024-01-11T03:57:22;102824.84;;;-5.87;86.71
19096;BME280;9680;52.520;13.332;2024-01-11T03:59:49;102821.91;;;-5.79;86.85
19096;BME280;9680;52.520;13.332;2024-01-11T04:02:16;102830.03;;;-5.72;86.87
19096;BME280;9680;52.520;13.332;2024-01-11T04:04:43;102823.78;;;-5.63;87.18
19096;BME280;9680;52.520;13.332;2024-01-11T04:07:11;102823.00;;;-5.62;87.11
19096;BME280;9680;52.520;13.332;2024-01-11T04:09:39;102824.34;;;-5.54;87.20
19096;BME280;9680;52.520;13.332;2024-01-11T04:12:06;102820.22;;;-5.52;87.76
19096;BME280;9680;52.520;13.332;2024-01-11T04:14:37;102834.38;;;-5.42;87.72
19096;BME280;9680;52.520;13.332;2024-01-11T04:17:05;102827.22;;;-5.34;88.04
19096;BME280;9680;52.520;13.332;2024-01-11T04:19:37;102809.03;;;-5.27;87.84
19096;BME280;9680;52.520;13.332;2024-01-11T04:22:19;102804.59;;;-5.16;88.07
19096;BME280;9680;52.520;13.332;2024-01-11T04:24:56;102825.22;;;-5.12;88.02
19096;BME280;9680;52.520;13.332;2024-01-11T04:27:23;102827.56;;;-5.15;88.18
19096;BME280;9680;52.520;13.332;2024-01-11T04:29:50;102822.56;;;-5.13;88.65
19096;BME280;9680;52.520;13.332;2024-01-11T04:32:17;102828.91;;;-5.06;88.85
19096;BME280;9680;52.520;13.332;2024-01-11T04:34:45;102821.97;;;-5.09;88.95
19096;BME280;9680;52.520;13.332;2024-01-11T04:37:17;102823.81;;;-5.06;89.33
19096;BME280;9680;52.520;13.332;2024-01-11T04:39:44;102810.50;;;-5.02;89.56
19096;BME280;9680;52.520;13.332;2024-01-11T04:42:11;102832.88;;;-4.97;89.66
19096;BME280;9680;52.520;13.332;2024-01-11T04:44:40;102828.06;;;-4.92;89.61
19096;BME280;9680;52.520;13.332;2024-01-11T04:47:11;102826.59;;;-4.88;89.54
19096;BME280;9680;52.520;13.332;2024-01-11T04:49:41;102826.94;;;-4.82;89.64
19096;BME280;9680;52.520;13.332;2024-01-11T04:52:08;102804.59;;;-4.73;89.80
19096;BME280;9680;52.520;13.332;2024-01-11T04:54:36;102798.47;;;-4.61;90.28
19096;BME280;9680;52.520;13.332;2024-01-11T04:57:02;102804.78;;;-4.55;89.79
19096;BME280;9680;52.520;13.332;2024-01-11T04:59:31;102799.16;;;-4.49;89.80
19096;BME280;9680;52.520;13.332;2024-01-11T05:01:57;102789.50;;;-4.40;89.71
19096;BME280;9680;52.520;13.332;2024-01-11T05:04:24;102780.22;;;-4.39;89.74
19096;BME280;9680;52.520;13.332;2024-01-11T05:06:51;102764.22;;;-4.36;89.98
19096;BME280;9680;52.520;13.332;2024-01-11T05:09:18;102737.47;;;-4.30;89.87
19096;BME280;9680;52.520;13.332;2024-01-11T05:11:46;102775.28;;;-4.21;90.22
19096;BME280;9680;52.520;13.332;2024-01-11T05:14:13;102782.13;;;-4.20;89.70
19096;BME280;9680;52.520;13.332;2024-01-11T05:16:39;102799.84;;;-4.21;89.63
19096;BME280;9680;52.520;13.332;2024-01-11T05:19:06;102799.16;;;-4.19;89.55
19096;BME280;9680;52.520;13.332;2024-01-11T05:21:33;102781.75;;;-4.11;89.79
19096;BME280;9680;52.520;13.332;2024-01-11T05:24:01;102769.47;;;-4.03;90.09
19096;BME280;9680;52.520;13.332;2024-01-11T05:26:28;102785.75;;;-4.00;89.75
19096;BME280;9680;52.520;13.332;2024-01-11T05:28:56;102789.03;;;-4.02;89.57
19096;BME280;9680;52.520;13.332;2024-01-11T05:31:23;102792.28;;;-4.05;90.00
19096;BME280;9680;52.520;13.332;2024-01-11T05:33:49;102785.69;;;-4.01;90.05
19096;BME280;9680;52.520;13.332;2024-01-11T05:36:16;102785.84;;;-3.98;90.17
19096;BME280;9680;52.520;13.332;2024-01-11T05:38:45;102786.19;;;-3.92;90.09
19096;BME280;9680;52.520;13.332;2024-01-11T05:41:12;102776.72;;;-3.95;90.16
19096;BME280;9680;52.520;13.332;2024-01-11T05:43:39;102791.47;;;-3.89;89.96
19096;BME280;9680;52.520;13.332;2024-01-11T05:46:08;102775.53;;;-3.85;90.07
19096;BME280;9680;52.520;13.332;2024-01-11T05:48:35;102777.72;;;-3.76;89.82
19096;BME280;9680;52.520;13.332;2024-01-11T05:51:01;102766.97;;;-3.70;89.95
19096;BME280;9680;52.520;13.332;2024-01-11T05:53:28;102765.38;;;-3.68;89.80
19096;BME280;9680;52.520;13.332;2024-01-11T05:55:56;102770.47;;;-3.68;89.70
19096;BME280;9680;52.520;13.332;2024-01-11T05:58:36;102773.03;;;-3.68;89.67
19096;BME280;9680;52.520;13.332;2024-01-11T06:01:04;102764.78;;;-3.64;89.71
19096;BME280;9680;52.520;13.332;2024-01-11T06:03:36;102777.41;;;-3.66;89.35
19096;BME280;9680;52.520;13.332;2024-01-11T06:06:09;102795.09;;;-3.69;89.45
19096;BME280;9680;52.520;13.332;2024-01-11T06:08:36;102792.59;;;-3.67;89.71
19096;BME280;9680;52.520;13.332;2024-01-11T06:11:06;102797.81;;;-3.66;89.97
19096;BME280;9680;52.520;13.332;2024-01-11T06:13:34;102802.28;;;-3.61;89.90
19096;BME280;9680;52.520;13.332;2024-01-11T06:16:05;102790.59;;;-3.58;89.91
19096;BME280;9680;52.520;13.332;2024-01-11T06:18:33;102767.19;;;-3.51;90.01
19096;BME280;9680;52.520;13.332;2024-01-11T06:21:01;102751.25;;;-3.46;90.15
19096;BME280;9680;52.520;13.332;2024-01-11T06:23:28;102759.91;;;-3.43;90.22
19096;BME280;9680;52.520;13.332;2024-01-11T06:25:55;102766.06;;;-3.39;90.13
19096;BME280;9680;52.520;13.332;2024-01-11T06:28:22;102754.19;;;-3.39;90.16
19096;BME280;9680;52.520;13.332;2024-01-11T06:30:55;102767.97;;;-3.35;89.80
19096;BME280;9680;52.520;13.332;2024-01-11T06:33:27;102761.19;;;-3.34;89.82
19096;BME280;9680;52.520;13.332;2024-01-11T06:35:55;102767.19;;;-3.34;89.97
19096;BME280;9680;52.520;13.332;2024-01-11T06:38:23;102764.88;;;-3.29;90.12
19096;BME280;9680;52.520;13.332;2024-01-11T06:40:50;102766.63;;;-3.28;90.19
19096;BME280;9680;52.520;13.332;2024-01-11T06:43:17;102763.19;;;-3.29;90.05
19096;BME280;9680;52.520;13.332;2024-01-11T06:45:44;102763.13;;;-3.30;90.29
19096;BME280;9680;52.520;13.332;2024-01-11T06:48:17;102759.69;;;-3.31;90.61
19096;BME280;9680;52.520;13.332;2024-01-11T06:50:47;102750.75;;;-3.23;90.76
19096;BME280;9680;52.520;13.332;2024-01-11T06:53:28;102752.97;;;-3.12;90.92
19096;BME280;9680;52.520;13.332;2024-01-11T06:55:55;102748.03;;;-3.09;90.66
19096;BME280;9680;52.520;13.332;2024-01-11T06:58:22;102745.47;;;-3.09;90.43
19096;BME280;9680;52.520;13.332;2024-01-11T07:00:49;102751.31;;;-3.12;90.78
19096;BME280;9680;52.520;13.332;2024-01-11T07:03:17;102741.19;;;-3.10;90.89
19096;BME280;9680;52.520;13.332;2024-01-11T07:05:43;102731.22;;;-3.05;90.90
19096;BME280;9680;52.520;13.332;2024-01-11T07:08:10;102729.63;;;-3.03;91.20
19096;BME280;9680;52.520;13.332;2024-01-11T07:10:38;102733.03;;;-3.03;91.60
19096;BME280;9680;52.520;13.332;2024-01-11T07:13:05;102729.78;;;-3.00;91.54
19096;BME280;9680;52.520;13.332;2024-01-11T07:15:32;102748.44;;;-3.01;91.77
19096;BME280;9680;52.520;13.332;2024-01-11T07:17:59;102753.69;;;-2.98;91.73
19096;BME280;9680;52.520;13.332;2024-01-11T07:20:25;102746.97;;;-2.96;91.74
19096;BME280;9680;52.520;13.332;2024-01-11T07:22:52;102737.81;;;-2.93;91.88
19096;BME280;9680;52.520;13.332;2024-01-11T07:25:19;102747.88;;;-2.96;92.04
19096;BME280;9680;52.520;13.332;2024-01-11T07:27:47;102735.34;;;-2.91;92.13
19096;BME280;9680;52.520;13.332;2024-01-11T07:30:14;102728.19;;;-2.98;92.10
19096;BME280;9680;52.520;13.332;2024-01-11T07:32:41;102725.47;;;-3.01;92.30
19096;BME280;9680;52.520;13.332;2024-01-11T07:35:08;102725.31;;;-3.04;92.08
19096;BME280;9680;52.520;13.332;2024-01-11T07:37:36;102739.03;;;-3.02;92.17
19096;BME280;9680;52.520;13.332;2024-01-11T07:40:04;102739.09;;;-3.01;92.18
19096;BME280;9680;52.520;13.332;2024-01-11T07:42:35;102740.94;;;-2.98;92.44
19096;BME280;9680;52.520;13.332;2024-01-11T07:45:04;102742.03;;;-2.93;92.73
19096;BME280;9680;52.520;13.332;2024-01-11T07:47:31;102746.44;;;-2.90;92.83
19096;BME280;9680;52.520;13.332;2024-01-11T07:49:58;102752.38;;;-2.90;92.81
19096;BME280;9680;52.520;13.332;2024-01-11T07:52:25;102749.94;;;-2.88;92.50
19096;BME280;9680;52.520;13.332;2024-01-11T07:54:52;102737.03;;;-2.91;93.15
19096;BME280;9680;52.520;13.332;2024-01-11T07:57:19;102728.22;;;-2.80;93.09
19096;BME280;9680;52.520;13.332;2024-01-11T07:59:45;102740.34;;;-2.76;92.89
19096;BME280;9680;52.520;13.332;2024-01-11T08:02:14;102720.72;;;-2.77;92.79
19096;BME280;9680;52.520;13.332;2024-01-11T08:04:41;102722.69;;;-2.71;92.91
19096;BME280;9680;52.520;13.332;2024-01-11T08:07:08;102725.97;;;-2.74;92.63
19096;BME280;9680;52.520;13.332;2024-01-11T08:09:35;102737.84;;;-2.74;92.28
19096;BME280;9680;52.520;13.332;2024-01-11T08:12:02;102729.97;;;-2.79;92.28
19096;BME280;9680;52.520;13.332;2024-01-11T08:14:29;102730.78;;;-2.80;92.42
19096;BME280;9680;52.520;13.332;2024-01-11T08:16:55;102734.34;;;-2.76;92.66
19096;BME280;9680;52.520;13.332;2024-01-11T08:19:25;102735.59;;;-2.68;92.61
19096;BME280;9680;52.520;13.332;2024-01-11T08:21:52;102728.53;;;-2.74;92.53
19096;BME280;9680;52.520;13.332;2024-01-11T08:24:22;102730.97;;;-2.75;92.80
19096;BME280;9680;52.520;13.332;2024-01-11T08:26:49;102735.06;;;-2.79;92.74
19096;BME280;9680;52.520;13.332;2024-01-11T08:29:16;102726.53;;;-2.80;92.77
19096;BME280;9680;52.520;13.332;2024-01-11T08:31:44;102735.78;;;-2.82;92.72
19096;BME280;9680;52.520;13.332;2024-01-11T08:34:11;102741.13;;;-2.77;92.91
19096;BME280;9680;52.520;13.332;2024-01-11T08:36:39;102717.50;;;-2.73;93.06
19096;BME280;9680;52.520;13.332;2024-01-11T08:39:06;102714.16;;;-2.72;93.15
19096;BME280;9680;52.520;13.332;2024-01-11T08:41:33;102707.69;;;-2.65;93.19
19096;BME280;9680;52.520;13.332;2024-01-11T08:44:01;102714.19;;;-2.54;93.37
19096;BME280;9680;52.520;13.332;2024-01-11T08:46:28;102718.78;;;-2.46;92.96
19096;BME280;9680;52.520;13.332;2024-01-11T08:48:56;102723.00;;;-2.47;92.53
19096;BME280;9680;52.520;13.332;2024-01-11T08:51:23;102716.44;;;-2.42;92.75
19096;BME280;9680;52.520;13.332;2024-01-11T08:53:51;102725.94;;;-2.39;92.21
19096;BME280;9680;52.520;13.332;2024-01-11T08:56:18;102721.69;;;-2.39;92.36
19096;BME280;9680;52.520;13.332;2024-01-11T08:58:45;102715.91;;;-2.35;92.50
19096;BME280;9680;52.520;13.332;2024-01-11T09:01:12;102710.31;;;-2.27;92.83
19096;BME280;9680;52.520;13.332;2024-01-11T09:03:38;102703.09;;;-2.18;92.99
19096;BME280;9680;52.520;13.332;2024-01-11T09:06:05;102689.41;;;-2.00;93.21
19096;BME280;9680;52.520;13.332;2024-01-11T09:08:32;102679.28;;;-1.79;93.27
19096;BME280;9680;52.520;13.332;2024-01-11T09:11:00;102675.56;;;-1.66;92.58
19096;BME280;9680;52.520;13.332;2024-01-11T09:13:27;102679.47;;;-1.55;92.25
19096;BME280;9680;52.520;13.332;2024-01-11T09:15:54;102669.38;;;-1.52;91.36
19096;BME280;9680;52.520;13.332;2024-01-11T09:18:21;102671.72;;;-1.56;90.78
19096;BME280;9680;52.520;13.332;2024-01-11T09:20:48;102670.25;;;-1.51;91.05
19096;BME280;9680;52.520;13.332;2024-01-11T09:23:16;102662.97;;;-1.42;90.92
19096;BME280;9680;52.520;13.332;2024-01-11T09:25:43;102678.97;;;-1.46;90.35
19096;BME280;9680;52.520;13.332;2024-01-11T09:28:11;102679.53;;;-1.53;90.08
19096;BME280;9680;52.520;13.332;2024-01-11T09:30:38;102695.22;;;-1.65;89.96
19096;BME280;9680;52.520;13.332;2024-01-11T09:33:05;102704.06;;;-1.77;89.98
19096;BME280;9680;52.520;13.332;2024-01-11T09:35:32;102710.06;;;-1.76;90.66
19096;BME280;9680;52.520;13.332;2024-01-11T09:37:59;102699.09;;;-1.73;91.32
19096;BME280;9680;52.520;13.332;2024-01-11T09:40:26;102692.50;;;-1.68;91.21
19096;BME280;9680;52.520;13.332;2024-01-11T09:42:53;102676.31;;;-1.69;91.15
19096;BME280;9680;52.520;13.332;2024-01-11T09:45:21;102679.41;;;-1.76;91.17
19096;BME280;9680;52.520;13.332;2024-01-11T09:47:49;102687.88;;;-1.77;91.36
19096;BME280;9680;52.520;13.332;2024-01-11T09:50:18;102693.72;;;-1.80;91.15
19096;BME280;9680;52.520;13.332;2024-01-11T09:52:45;102714.69;;;-1.87;91.30
19096;BME280;9680;52.520;13.332;2024-01-11T09:55:13;102710.19;;;-1.93;91.33
19096;BME280;9680;52.520;13.332;2024-01-11T09:57:42;102712.75;;;-1.93;91.73
19096;BME280;9680;52.520;13.332;2024-01-11T10:00:13;102708.09;;;-2.01;91.11
19096;BME280;9680;52.520;13.332;2024-01-11T10:02:45;102709.47;;;-2.08;92.19
19096;BME280;9680;52.520;13.332;2024-01-11T10:05:12;102709.59;;;-2.05;92.32
19096;BME280;9680;52.520;13.332;2024-01-11T10:07:40;102705.44;;;-2.03;92.41
19096;BME280;9680;52.520;13.332;2024-01-11T10:10:07;102706.09;;;-1.89;92.96
19096;BME280;9680;52.520;13.332;2024-01-11T10:12:34;102703.47;;;-1.71;92.88
19096;BME280;9680;52.520;13.332;2024-01-11T10:15:05;102703.97;;;-1.60;92.41
19096;BME280;9680;52.520;13.332;2024-01-11T10:17:35;102699.31;;;-1.49;92.45
19096;BME280;9680;52.520;13.332;2024-01-11T10:20:04;102704.63;;;-1.44;91.78
19096;BME280;9680;52.520;13.332;2024-01-11T10:22:32;102689.44;;;-1.41;91.12
19096;BME280;9680;52.520;13.332;2024-01-11T10:25:09;102686.44;;;-1.31;91.61
19096;BME280;9680;52.520;13.332;2024-01-11T10:27:37;102678.44;;;-1.19;91.28
19096;BME280;9680;52.520;13.332;2024-01-11T10:30:05;102672.28;;;-1.23;90.50
19096;BME280;9680;52.520;13.332;2024-01-11T10:32:33;102656.25;;;-1.19;90.70
19096;BME280;9680;52.520;13.332;2024-01-11T10:35:00;102661.47;;;-1.17;89.99
19096;BME280;9680;52.520;13.332;2024-01-11T10:37:30;102660.88;;;-1.31;89.53
19096;BME280;9680;52.520;13.332;2024-01-11T10:39:58;102661.56;;;-1.35;89.92
19096;BME280;9680;52.520;13.332;2024-01-11T10:42:31;102660.00;;;-1.32;89.99
19096;BME280;9680;52.520;13.332;2024-01-11T10:44:59;102663.56;;;-1.28;90.14
19096;BME280;9680;52.520;13.332;2024-01-11T10:47:30;102674.59;;;-1.29;89.68
19096;BME280;9680;52.520;13.332;2024-01-11T10:50:00;102676.91;;;-1.35;89.59
19096;BME280;9680;52.520;13.332;2024-01-11T10:52:36;102685.38;;;-1.36;89.57
19096;BME280;9680;52.520;13.332;2024-01-11T10:55:10;102679.38;;;-1.37;89.69
19096;BME280;9680;52.520;13.332;2024-01-11T10:57:37;102672.94;;;-1.28;89.93
19096;BME280;9680;52.520;13.332;2024-01-11T11:00:06;102669.88;;;-1.20;90.04
19096;BME280;9680;52.520;13.332;2024-01-11T11:02:38;102669.88;;;-1.20;89.24
19096;BME280;9680;52.520;13.332;2024-01-11T11:05:07;102670.25;;;-1.32;88.89
19096;BME280;9680;52.520;13.332;2024-01-11T11:07:36;102663.03;;;-1.40;89.18
19096;BME280;9680;52.520;13.332;2024-01-11T11:10:06;102668.03;;;-1.43;89.47
19096;BME280;9680;52.520;13.332;2024-01-11T11:12:35;102656.72;;;-1.49;89.62
19096;BME280;9680;52.520;13.332;2024-01-11T11:15:05;102648.84;;;-1.53;89.69
19096;BME280;9680;52.520;13.332;2024-01-11T11:17:32;102655.66;;;-1.54;90.10
19096;BME280;9680;52.520;13.332;2024-01-11T11:19:59;102658.09;;;-1.57;90.48
19096;BME280;9680;52.520;13.332;2024-01-11T11:22:27;102671.69;;;-1.58;91.12
19096;BME280;9680;52.520;13.332;2024-01-11T11:25:04;102667.63;;;-1.53;90.95
19096;BME280;9680;52.520;13.332;2024-01-11T11:27:33;102681.50;;;-1.48;91.31
19096;BME280;9680;52.520;13.332;2024-01-11T11:30:00;102668.84;;;-1.44;91.34
19096;BME280;9680;52.520;13.332;2024-01-11T11:32:36;102677.72;;;-1.36;91.69
19096;BME280;9680;52.520;13.332;2024-01-11T11:35:04;102676.91;;;-1.35;91.37
19096;BME280;9680;52.520;13.332;2024-01-11T11:37:31;102697.91;;;-1.42;92.05
19096;BME280;9680;52.520;13.332;2024-01-11T11:39:58;102701.31;;;-1.42;92.52
19096;BME280;9680;52.520;13.332;2024-01-11T11:42:26;102704.41;;;-1.49;93.45
19096;BME280;9680;52.520;13.332;2024-01-11T11:44:56;102700.25;;;-1.47;93.88
19096;BME280;9680;52.520;13.332;2024-01-11T11:47:24;102680.84;;;-1.42;94.46
19096;BME280;9680;52.520;13.332;2024-01-11T11:49:58;102677.56;;;-1.39;94.63
19096;BME280;9680;52.520;13.332;2024-01-11T11:52:26;102675.41;;;-1.30;95.01
19096;BME280;9680;52.520;13.332;2024-01-11T11:54:53;102678.44;;;-1.19;94.98
19096;BME280;9680;52.520;13.332;2024-01-11T11:57:20;102675.19;;;-1.15;94.85
19096;BME280;9680;52.520;13.332;2024-01-11T11:59:49;102681.38;;;-1.10;94.77
19096;BME280;9680;52.520;13.332;2024-01-11T12:02:17;102674.53;;;-1.09;94.53
19096;BME280;9680;52.520;13.332;2024-01-11T12:04:46;102665.25;;;-1.07;94.75
19096;BME280;9680;52.520;13.332;2024-01-11T12:07:13;102661.19;;;-1.02;94.53
19096;BME280;9680;52.520;13.332;2024-01-11T12:09:40;102653.59;;;-1.00;94.71
19096;BME280;9680;52.520;13.332;2024-01-11T12:12:07;102651.28;;;-0.94;95.10
19096;BME280;9680;52.520;13.332;2024-01-11T12:14:35;102661.16;;;-0.82;95.13
19096;BME280;9680;52.520;13.332;2024-01-11T12:17:03;102667.44;;;-0.74;94.83
19096;BME280;9680;52.520;13.332;2024-01-11T12:19:30;102663.25;;;-0.72;94.35
19096;BME280;9680;52.520;13.332;2024-01-11T12:21:58;102662.44;;;-0.71;94.51
19096;BME280;9680;52.520;13.332;2024-01-11T12:24:25;102667.06;;;-0.62;94.71
19096;BME280;9680;52.520;13.332;2024-01-11T12:26:52;102669.78;;;-0.57;94.17
19096;BME280;9680;52.520;13.332;2024-01-11T12:29:21;102672.22;;;-0.61;94.04
19096;BME280;9680;52.520;13.332;2024-01-11T12:31:48;102653.50;;;-0.60;94.04
19096;BME280;9680;52.520;13.332;2024-01-11T12:34:16;102646.50;;;-0.64;93.91
19096;BME280;9680;52.520;13.332;2024-01-11T12:36:43;102645.00;;;-0.59;94.20
19096;BME280;9680;52.520;13.332;2024-01-11T12:39:10;102637.50;;;-0.54;94.07
19096;BME280;9680;52.520;13.332;2024-01-11T12:41:39;102636.94;;;-0.47;94.21
19096;BME280;9680;52.520;13.332;2024-01-11T12:44:06;102632.75;;;-0.45;93.98
19096;BME280;9680;52.520;13.332;2024-01-11T12:46:33;102633.78;;;-0.39;93.83
19096;BME280;9680;52.520;13.332;2024-01-11T12:49:00;102631.47;;;-0.33;93.85
19096;BME280;9680;52.520;13.332;2024-01-11T12:51:28;102633.38;;;-0.27;93.97
19096;BME280;9680;52.520;13.332;2024-01-11T12:53:57;102635.66;;;-0.35;93.30